Time;durP1;ratioP1;P1;durP2;ratioP2;P2;SDS_P1;SDS_P2;PMS_P1;PMS_P2;Temp;Humidity;BMP_temperature;BMP_pressure;BME280_temperature;BME280_humidity;BME280_pressure;Samples;Min_cycle;Max_cycle;Signal;HPM_P1;HPM_P2
2022/03/12 00:02:08;;;;;;;;;;;2.10;71.00;;;;;;5124290;28;19926;-71
2022/03/12 00:04:34;;;;;;;;;;;2.10;71.30;;;;;;5124305;28;19920;-71
2022/03/12 00:07:02;;;;;;;;;;;2.10;71.50;;;;;;5108751;28;19928;-71
2022/03/12 00:09:28;;;;;;;;;;;2.10;70.60;;;;;;5123610;28;19942;-71
2022/03/12 00:12:00;;;;;;;;;;;2.10;71.00;;;;;;5123826;28;19926;-71
2022/03/12 00:14:28;;;;;;;;;;;2.00;70.70;;;;;;5124150;28;19965;-71
2022/03/12 00:16:55;;;;;;;;;;;2.00;70.70;;;;;;5105553;28;19987;-71
2022/03/12 00:19:23;;;;;;;;;;;2.00;70.60;;;;;;5103484;28;19920;-71
2022/03/12 00:21:50;;;;;;;;;;;2.00;70.60;;;;;;5103296;28;19924;-71
2022/03/12 00:24:17;;;;;;;;;;;2.00;70.50;;;;;;5111869;28;19978;-71
2022/03/12 00:26:45;;;;;;;;;;;2.00;70.50;;;;;;5118599;28;20418;-71
2022/03/12 00:29:14;;;;;;;;;;;2.00;71.00;;;;;;5121726;28;19979;-71
2022/03/12 00:31:42;;;;;;;;;;;2.00;70.20;;;;;;5123850;28;19924;-71
2022/03/12 00:34:08;;;;;;;;;;;2.00;70.40;;;;;;5123552;28;19924;-71
2022/03/12 00:36:36;;;;;;;;;;;1.90;70.90;;;;;;5122451;28;19924;-71
2022/03/12 00:39:03;;;;;;;;;;;1.90;71.20;;;;;;5123029;28;19920;-71
2022/03/12 00:41:30;;;;;;;;;;;1.90;71.20;;;;;;5116741;28;19920;-71
2022/03/12 00:43:56;;;;;;;;;;;1.90;71.00;;;;;;5103330;28;19920;-71
2022/03/12 00:46:23;;;;;;;;;;;1.90;71.10;;;;;;5102699;28;19927;-71
2022/03/12 00:48:50;;;;;;;;;;;1.90;71.40;;;;;;5103047;28;20116;-71
2022/03/12 00:51:16;;;;;;;;;;;1.90;71.80;;;;;;5103087;28;20208;-71
2022/03/12 00:53:44;;;;;;;;;;;1.80;72.00;;;;;;5120658;28;19951;-71
2022/03/12 00:56:11;;;;;;;;;;;1.80;72.10;;;;;;5123096;28;19926;-71
2022/03/12 00:58:38;;;;;;;;;;;1.90;71.70;;;;;;5123607;28;19927;-71
2022/03/12 01:01:05;;;;;;;;;;;1.90;71.50;;;;;;5119925;28;19928;-71
2022/03/12 01:03:32;;;;;;;;;;;1.80;71.70;;;;;;5103434;28;19928;-73
2022/03/12 01:06:00;;;;;;;;;;;1.80;72.00;;;;;;5104534;28;19961;-71
2022/03/12 01:08:27;;;;;;;;;;;1.70;72.40;;;;;;5123169;28;19927;-71
2022/03/12 01:10:59;;;;;;;;;;;1.70;72.30;;;;;;5123449;28;20203;-72
2022/03/12 01:13:26;;;;;;;;;;;1.70;72.30;;;;;;5123885;28;19955;-72
2022/03/12 01:15:53;;;;;;;;;;;1.70;72.90;;;;;;5122795;28;19920;-72
2022/03/12 01:18:21;;;;;;;;;;;1.70;72.40;;;;;;5123491;28;19926;-72
2022/03/12 01:20:49;;;;;;;;;;;1.70;72.90;;;;;;5111595;28;19928;-72
2022/03/12 01:23:16;;;;;;;;;;;1.70;71.60;;;;;;5110302;28;20204;-72
2022/03/12 01:25:43;;;;;;;;;;;1.70;71.90;;;;;;5105961;28;19924;-72
2022/03/12 01:28:12;;;;;;;;;;;1.60;72.40;;;;;;5106640;28;19920;-72
2022/03/12 01:30:41;;;;;;;;;;;1.60;72.80;;;;;;5106618;28;19928;-72
2022/03/12 01:33:08;;;;;;;;;;;1.60;72.50;;;;;;5106625;28;19927;-72
2022/03/12 01:35:36;;;;;;;;;;;1.60;72.40;;;;;;5117292;28;19920;-72
2022/03/12 01:38:03;;;;;;;;;;;1.60;72.50;;;;;;5127120;28;20238;-72
2022/03/12 01:40:30;;;;;;;;;;;1.60;73.30;;;;;;5126683;28;19920;-73
2022/03/12 01:42:57;;;;;;;;;;;1.60;73.20;;;;;;5126808;28;19926;-72
2022/03/12 01:45:27;;;;;;;;;;;1.50;73.20;;;;;;5126413;28;19927;-72
2022/03/12 01:47:55;;;;;;;;;;;1.50;73.10;;;;;;5126209;28;19931;-72
2022/03/12 01:50:22;;;;;;;;;;;1.50;73.30;;;;;;5125820;28;19920;-72
2022/03/12 01:52:49;;;;;;;;;;;1.50;73.10;;;;;;5126789;28;19920;-72
2022/03/12 01:55:16;;;;;;;;;;;1.50;73.60;;;;;;5123123;28;19931;-73
2022/03/12 01:57:43;;;;;;;;;;;1.50;74.30;;;;;;5108588;28;20114;-72
2022/03/12 02:00:21;;;;;;;;;;;1.40;74.30;;;;;;5106368;28;19927;-72
2022/03/12 02:02:53;;;;;;;;;;;1.40;74.30;;;;;;5113806;28;19920;-72
2022/03/12 02:05:20;;;;;;;;;;;1.30;74.20;;;;;;5125965;28;19966;-72
2022/03/12 02:07:47;;;;;;;;;;;1.30;74.90;;;;;;5126360;28;19919;-72
2022/03/12 02:10:18;;;;;;;;;;;1.30;75.50;;;;;;5126064;28;20254;-72
2022/03/12 02:12:45;;;;;;;;;;;1.30;74.60;;;;;;5125896;28;19943;-72
2022/03/12 02:15:11;;;;;;;;;;;1.30;74.30;;;;;;5122233;28;19951;-72
2022/03/12 02:17:38;;;;;;;;;;;1.30;74.50;;;;;;5117671;28;19924;-72
2022/03/12 02:20:07;;;;;;;;;;;1.30;75.30;;;;;;5124520;28;19928;-72
2022/03/12 02:22:33;;;;;;;;;;;1.30;76.00;;;;;;5125968;28;19927;-73
2022/03/12 02:25:01;;;;;;;;;;;1.20;76.80;;;;;;5126364;28;19924;-72
2022/03/12 02:27:29;;;;;;;;;;;1.20;77.70;;;;;;5125576;28;19919;-72
2022/03/12 02:29:57;;;;;;;;;;;1.10;77.90;;;;;;5125076;28;20223;-73
2022/03/12 02:32:23;;;;;;;;;;;1.10;78.10;;;;;;5125002;28;19939;-74
2022/03/12 02:34:51;;;;;;;;;;;1.10;78.70;;;;;;5125517;28;19927;-72
2022/03/12 02:37:29;;;;;;;;;;;1.10;79.50;;;;;;5119389;28;19926;-73
2022/03/12 02:39:56;;;;;;;;;;;1.00;80.00;;;;;;5125594;28;19928;-72
2022/03/12 02:42:25;;;;;;;;;;;1.10;80.20;;;;;;5125801;28;20225;-72
2022/03/12 02:44:54;;;;;;;;;;;1.00;80.40;;;;;;5107560;28;19920;-73
2022/03/12 02:47:22;;;;;;;;;;;1.00;79.90;;;;;;5110933;28;19958;-72
2022/03/12 02:49:49;;;;;;;;;;;1.00;80.20;;;;;;5125037;28;20118;-72
2022/03/12 02:52:18;;;;;;;;;;;1.00;80.40;;;;;;5125786;28;19920;-73
2022/03/12 02:54:45;;;;;;;;;;;1.00;80.50;;;;;;5125453;28;19927;-72
2022/03/12 02:57:13;;;;;;;;;;;1.00;80.60;;;;;;5121184;28;19920;-72
2022/03/12 02:59:43;;;;;;;;;;;0.90;80.70;;;;;;5125303;28;19926;-71
2022/03/12 03:02:10;;;;;;;;;;;0.90;79.70;;;;;;5125401;28;19928;-71
2022/03/12 03:04:40;;;;;;;;;;;0.90;79.60;;;;;;5125020;28;20219;-72
2022/03/12 03:07:07;;;;;;;;;;;0.90;79.80;;;;;;5124726;28;19920;-72
2022/03/12 03:09:34;;;;;;;;;;;0.90;80.00;;;;;;5125113;28;19920;-72
2022/03/12 03:12:03;;;;;;;;;;;0.90;80.60;;;;;;5125107;28;19920;-72
2022/03/12 03:14:29;;;;;;;;;;;0.80;81.50;;;;;;5124977;28;19919;-72
2022/03/12 03:16:59;;;;;;;;;;;0.80;82.20;;;;;;5122839;28;20146;-72
2022/03/12 03:19:26;;;;;;;;;;;0.70;82.70;;;;;;5124884;28;20101;-72
2022/03/12 03:21:53;;;;;;;;;;;0.70;84.40;;;;;;5125118;28;19920;-73
2022/03/12 03:24:20;;;;;;;;;;;0.60;84.40;;;;;;5124801;28;19920;-72
2022/03/12 03:26:50;;;;;;;;;;;0.60;84.80;;;;;;5103841;28;19927;-71
2022/03/12 03:29:19;;;;;;;;;;;0.60;85.40;;;;;;5104197;28;19920;-74
2022/03/12 03:31:46;;;;;;;;;;;0.50;86.40;;;;;;5108859;28;19919;-72
2022/03/12 03:34:14;;;;;;;;;;;0.50;86.00;;;;;;5124556;28;19928;-72
2022/03/12 03:36:41;;;;;;;;;;;0.50;86.20;;;;;;5124119;28;19920;-72
2022/03/12 03:39:08;;;;;;;;;;;0.50;86.50;;;;;;5124436;28;19935;-73
2022/03/12 03:41:35;;;;;;;;;;;0.50;86.40;;;;;;5104081;28;19920;-72
2022/03/12 03:44:01;;;;;;;;;;;0.50;86.10;;;;;;5104118;28;19995;-73
2022/03/12 03:46:28;;;;;;;;;;;0.50;86.40;;;;;;5103913;28;19927;-72
2022/03/12 03:48:55;;;;;;;;;;;0.40;86.70;;;;;;5115259;28;19983;-72
2022/03/12 03:51:23;;;;;;;;;;;0.40;87.10;;;;;;5124573;28;19942;-72
2022/03/12 03:53:50;;;;;;;;;;;0.40;87.40;;;;;;5113358;28;20211;-72
2022/03/12 03:56:17;;;;;;;;;;;0.40;87.90;;;;;;5103232;28;19924;-75
2022/03/12 03:58:44;;;;;;;;;;;0.40;87.90;;;;;;5103925;28;19926;-72
2022/03/12 04:01:11;;;;;;;;;;;0.40;87.70;;;;;;5103680;28;20207;-72
2022/03/12 04:03:38;;;;;;;;;;;0.30;87.70;;;;;;5103741;28;20214;-72
2022/03/12 04:06:05;;;;;;;;;;;0.30;88.20;;;;;;5121682;28;20119;-72
2022/03/12 04:08:34;;;;;;;;;;;0.30;88.50;;;;;;5123777;28;19920;-72
2022/03/12 04:11:04;;;;;;;;;;;0.30;88.80;;;;;;5123844;28;20127;-72
2022/03/12 04:13:31;;;;;;;;;;;0.20;89.10;;;;;;5124342;28;19927;-72
2022/03/12 04:15:58;;;;;;;;;;;0.20;89.20;;;;;;5123345;28;19920;-72
2022/03/12 04:18:25;;;;;;;;;;;0.20;89.70;;;;;;5123730;28;19919;-72
2022/03/12 04:20:52;;;;;;;;;;;0.20;90.00;;;;;;5121956;28;20215;-72
2022/03/12 04:23:21;;;;;;;;;;;0.20;90.00;;;;;;5103436;28;19927;-71
2022/03/12 04:25:49;;;;;;;;;;;0.10;90.10;;;;;;5103212;28;19920;-72
2022/03/12 04:28:17;;;;;;;;;;;0.10;90.10;;;;;;5103495;28;20258;-71
2022/03/12 04:30:43;;;;;;;;;;;0.10;90.20;;;;;;5103678;28;19920;-72
2022/03/12 04:33:10;;;;;;;;;;;0.10;90.20;;;;;;5109123;28;19927;-72
2022/03/12 04:35:37;;;;;;;;;;;0.10;90.20;;;;;;5121254;28;19934;-72
2022/03/12 04:38:05;;;;;;;;;;;0.00;90.20;;;;;;5103345;28;19920;-72
2022/03/12 04:40:31;;;;;;;;;;;0.00;90.40;;;;;;5103113;28;20234;-72
2022/03/12 04:43:00;;;;;;;;;;;0.00;90.60;;;;;;5103576;28;20123;-72
2022/03/12 04:45:28;;;;;;;;;;;0.00;90.40;;;;;;5103002;28;19986;-72
2022/03/12 04:47:55;;;;;;;;;;;-0.10;90.40;;;;;;5108977;28;19919;-72
2022/03/12 04:50:22;;;;;;;;;;;-0.10;90.50;;;;;;5110591;28;19920;-72
2022/03/12 04:52:49;;;;;;;;;;;-0.20;90.50;;;;;;5103493;28;19932;-72
2022/03/12 04:55:17;;;;;;;;;;;-0.20;90.60;;;;;;5103065;28;19924;-72
2022/03/12 04:57:43;;;;;;;;;;;-0.20;90.80;;;;;;5107149;28;19927;-73
2022/03/12 05:00:15;;;;;;;;;;;-0.20;90.90;;;;;;5127762;28;20122;-72
2022/03/12 05:02:41;;;;;;;;;;;-0.30;91.30;;;;;;5127336;28;20235;-72
2022/03/12 05:05:11;;;;;;;;;;;-0.30;91.00;;;;;;5114120;28;20133;-72
2022/03/12 05:07:38;;;;;;;;;;;-0.30;91.00;;;;;;5107048;28;19920;-73
2022/03/12 05:10:08;;;;;;;;;;;-0.30;91.00;;;;;;5121136;28;19942;-72
2022/03/12 05:12:36;;;;;;;;;;;-0.30;91.20;;;;;;5125892;28;19924;-72
2022/03/12 05:15:03;;;;;;;;;;;-0.30;91.40;;;;;;5127083;28;19927;-72
2022/03/12 05:17:37;;;;;;;;;;;-0.30;91.50;;;;;;5126818;28;19943;-71
2022/03/12 05:20:03;;;;;;;;;;;-0.30;91.60;;;;;;5114325;28;19920;-71
2022/03/12 05:22:30;;;;;;;;;;;-0.30;91.80;;;;;;5106892;28;19920;-72
2022/03/12 05:24:57;;;;;;;;;;;-0.30;91.40;;;;;;5106873;28;19924;-72
2022/03/12 05:27:26;;;;;;;;;;;-0.20;90.60;;;;;;5121036;28;19920;-71
2022/03/12 05:29:54;;;;;;;;;;;-0.30;90.40;;;;;;5122478;28;20168;-71
2022/03/12 05:32:20;;;;;;;;;;;-0.20;89.50;;;;;;5119695;28;19935;-73
2022/03/12 05:34:48;;;;;;;;;;;-0.20;88.90;;;;;;5106965;28;19951;-71
2022/03/12 05:37:15;;;;;;;;;;;-0.20;88.90;;;;;;5114578;28;19927;-71
2022/03/12 05:39:41;;;;;;;;;;;-0.30;88.60;;;;;;5126708;28;19965;-71
2022/03/12 05:42:08;;;;;;;;;;;-0.20;88.20;;;;;;5126164;28;19923;-71
2022/03/12 05:44:36;;;;;;;;;;;-0.20;87.30;;;;;;5126118;28;20119;-71
2022/03/12 05:47:03;;;;;;;;;;;-0.20;87.10;;;;;;5125567;28;19973;-71
2022/03/12 05:49:29;;;;;;;;;;;-0.20;86.80;;;;;;5126906;28;19920;-72
2022/03/12 05:51:58;;;;;;;;;;;-0.10;86.90;;;;;;5122377;27;19919;-71
2022/03/12 05:54:24;;;;;;;;;;;-0.10;86.40;;;;;;5127436;28;20201;-71
2022/03/12 05:56:51;;;;;;;;;;;-0.10;86.90;;;;;;5126793;28;19926;-72
2022/03/12 05:59:18;;;;;;;;;;;-0.10;87.30;;;;;;5127006;28;19991;-72
2022/03/12 06:01:45;;;;;;;;;;;-0.10;87.70;;;;;;5120962;28;19924;-71
2022/03/12 06:04:12;;;;;;;;;;;-0.10;88.10;;;;;;5107476;28;20234;-71
2022/03/12 06:06:39;;;;;;;;;;;-0.10;87.80;;;;;;5105500;28;20230;-71
2022/03/12 06:09:08;;;;;;;;;;;-0.10;87.50;;;;;;5105275;28;19920;-73
2022/03/12 06:11:37;;;;;;;;;;;-0.10;87.90;;;;;;5122313;28;19920;-72
2022/03/12 06:14:04;;;;;;;;;;;-0.10;87.50;;;;;;5126133;28;19934;-71
2022/03/12 06:16:33;;;;;;;;;;;-0.10;85.60;;;;;;5124789;28;19920;-71
2022/03/12 06:19:00;;;;;;;;;;;0.00;84.20;;;;;;5125992;28;19958;-72
2022/03/12 06:21:28;;;;;;;;;;;0.00;84.80;;;;;;5126175;28;19951;-71
2022/03/12 06:23:56;;;;;;;;;;;0.00;84.20;;;;;;5125758;28;20163;-72
2022/03/12 06:26:25;;;;;;;;;;;0.00;84.30;;;;;;5109998;28;19958;-72
2022/03/12 06:28:52;;;;;;;;;;;0.00;84.50;;;;;;5125930;28;19920;-73
2022/03/12 06:31:19;;;;;;;;;;;0.00;84.90;;;;;;5117293;28;20206;-71
2022/03/12 06:33:45;;;;;;;;;;;0.00;84.40;;;;;;5105506;28;20115;-71
2022/03/12 06:36:13;;;;;;;;;;;0.00;84.40;;;;;;5104155;28;19949;-71
2022/03/12 06:38:40;;;;;;;;;;;0.10;84.20;;;;;;5125095;28;19923;-72
2022/03/12 06:41:07;;;;;;;;;;;0.10;83.80;;;;;;5125695;28;19987;-71
2022/03/12 06:43:36;;;;;;;;;;;0.10;83.40;;;;;;5126021;28;19919;-71
2022/03/12 06:46:03;;;;;;;;;;;0.00;83.80;;;;;;5116310;28;19920;-71
2022/03/12 06:48:31;;;;;;;;;;;0.00;84.50;;;;;;5105332;28;19920;-71
2022/03/12 06:50:58;;;;;;;;;;;0.00;84.90;;;;;;5105249;28;20212;-71
2022/03/12 06:53:24;;;;;;;;;;;-0.10;85.00;;;;;;5105153;28;19920;-73
2022/03/12 06:55:52;;;;;;;;;;;-0.10;85.30;;;;;;5124025;28;19965;-72
2022/03/12 06:58:19;;;;;;;;;;;-0.10;85.30;;;;;;5124144;28;19926;-72
2022/03/12 07:00:48;;;;;;;;;;;0.00;85.60;;;;;;5105257;28;20208;-71
2022/03/12 07:03:14;;;;;;;;;;;0.00;85.40;;;;;;5107680;28;20091;-70
2022/03/12 07:05:41;;;;;;;;;;;0.00;85.50;;;;;;5124715;28;19924;-72
2022/03/12 07:08:07;;;;;;;;;;;0.00;85.60;;;;;;5125343;28;19927;-71
2022/03/12 07:10:35;;;;;;;;;;;0.10;85.40;;;;;;5120629;28;19928;-72
2022/03/12 07:13:01;;;;;;;;;;;0.10;85.30;;;;;;5123051;28;19983;-71
2022/03/12 07:15:29;;;;;;;;;;;0.20;84.90;;;;;;5124348;28;19956;-71
2022/03/12 07:17:56;;;;;;;;;;;0.20;84.20;;;;;;5124302;28;20208;-72
2022/03/12 07:20:23;;;;;;;;;;;0.30;82.20;;;;;;5122440;28;19926;-72
2022/03/12 07:22:50;;;;;;;;;;;0.40;79.60;;;;;;5120760;28;20134;-74
2022/03/12 07:25:25;;;;;;;;;;;0.50;79.40;;;;;;5122133;28;20206;-74
2022/03/12 07:27:52;;;;;;;;;;;0.50;79.80;;;;;;5125158;28;19958;-71
2022/03/12 07:30:21;;;;;;;;;;;0.60;79.80;;;;;;5124787;28;19954;-71
2022/03/12 07:32:48;;;;;;;;;;;0.60;78.20;;;;;;5110756;28;20112;-71
2022/03/12 07:35:17;;;;;;;;;;;0.60;78.70;;;;;;5104069;28;19991;-71
2022/03/12 07:37:44;;;;;;;;;;;0.60;79.00;;;;;;5109212;28;20215;-71
2022/03/12 07:40:12;;;;;;;;;;;0.70;78.80;;;;;;5123605;28;19920;-71
2022/03/12 07:42:38;;;;;;;;;;;0.70;77.50;;;;;;5106627;28;20221;-72
2022/03/12 07:45:05;;;;;;;;;;;0.80;77.70;;;;;;5107056;28;19942;-72
2022/03/12 07:47:33;;;;;;;;;;;0.80;77.50;;;;;;5123699;28;19919;-72
2022/03/12 07:49:59;;;;;;;;;;;0.80;77.10;;;;;;5123732;28;20223;-71
2022/03/12 07:52:28;;;;;;;;;;;0.90;76.80;;;;;;5116810;28;19920;-72
2022/03/12 07:54:54;;;;;;;;;;;1.00;76.70;;;;;;5124251;28;19920;-72
2022/03/12 07:57:26;;;;;;;;;;;1.00;76.70;;;;;;5123777;28;19920;-72
2022/03/12 07:59:53;;;;;;;;;;;1.10;76.70;;;;;;5124474;28;19919;-70
2022/03/12 08:02:19;;;;;;;;;;;1.10;76.70;;;;;;5124729;28;19944;-71
2022/03/12 08:04:46;;;;;;;;;;;1.20;75.20;;;;;;5124916;28;19926;-71
2022/03/12 08:07:14;;;;;;;;;;;1.30;74.70;;;;;;5123843;28;19919;-71
2022/03/12 08:09:42;;;;;;;;;;;1.30;75.30;;;;;;5123872;28;19935;-70
2022/03/12 08:12:09;;;;;;;;;;;1.40;73.80;;;;;;5121957;28;19920;-70
2022/03/12 08:14:35;;;;;;;;;;;1.50;73.40;;;;;;5124699;28;20115;-70
2022/03/12 08:17:02;;;;;;;;;;;1.60;72.70;;;;;;5123921;28;19926;-70
2022/03/12 08:19:30;;;;;;;;;;;1.60;74.10;;;;;;5124492;28;19982;-70
2022/03/12 08:21:57;;;;;;;;;;;1.70;73.90;;;;;;5124589;28;19924;-70
2022/03/12 08:24:23;;;;;;;;;;;1.80;73.10;;;;;;5124596;28;19943;-70
2022/03/12 08:26:51;;;;;;;;;;;1.90;72.60;;;;;;5124165;28;19920;-70
2022/03/12 08:29:18;;;;;;;;;;;1.90;72.60;;;;;;5124324;28;19973;-70
2022/03/12 08:31:45;;;;;;;;;;;2.00;74.00;;;;;;5123997;28;19927;-70
2022/03/12 08:34:11;;;;;;;;;;;2.10;72.60;;;;;;5124166;28;19920;-70
2022/03/12 08:36:38;;;;;;;;;;;2.20;71.40;;;;;;5108318;28;19920;-71
2022/03/12 08:39:05;;;;;;;;;;;2.20;72.10;;;;;;5103794;28;20247;-71
2022/03/12 08:41:34;;;;;;;;;;;2.30;72.40;;;;;;5118132;28;19979;-71
2022/03/12 08:44:02;;;;;;;;;;;2.30;72.20;;;;;;5123462;28;19992;-71
2022/03/12 08:46:29;;;;;;;;;;;2.40;72.70;;;;;;5120332;28;20211;-71
2022/03/12 08:48:55;;;;;;;;;;;2.40;72.10;;;;;;5116513;28;19966;-71
2022/03/12 08:51:29;;;;;;;;;;;2.50;72.40;;;;;;5117477;28;20230;-71
2022/03/12 08:53:55;;;;;;;;;;;2.60;71.90;;;;;;5103148;28;20096;-71
2022/03/12 08:56:22;;;;;;;;;;;2.70;71.20;;;;;;5103213;28;19920;-73
2022/03/12 08:58:49;;;;;;;;;;;2.70;71.10;;;;;;5103382;28;19920;-70
2022/03/12 09:01:18;;;;;;;;;;;2.80;73.60;;;;;;5118880;28;19924;-71
2022/03/12 09:03:45;;;;;;;;;;;2.90;72.50;;;;;;5123778;28;19959;-72
2022/03/12 09:06:12;;;;;;;;;;;3.00;71.80;;;;;;5123192;28;19920;-72
2022/03/12 09:08:39;;;;;;;;;;;3.00;71.40;;;;;;5124168;28;19920;-73
2022/03/12 09:11:05;;;;;;;;;;;3.10;71.40;;;;;;5123321;28;19924;-73
2022/03/12 09:13:32;;;;;;;;;;;3.20;71.60;;;;;;5123670;28;20190;-73
2022/03/12 09:15:59;;;;;;;;;;;3.30;71.30;;;;;;5115622;28;19924;-73
2022/03/12 09:18:28;;;;;;;;;;;3.40;71.00;;;;;;5120209;28;20162;-72
2022/03/12 09:20:55;;;;;;;;;;;3.40;70.90;;;;;;5108273;28;19958;-74
2022/03/12 09:23:22;;;;;;;;;;;3.40;71.00;;;;;;5103422;28;20216;-73
2022/03/12 09:25:49;;;;;;;;;;;3.50;71.70;;;;;;5102649;28;19920;-72
2022/03/12 09:28:16;;;;;;;;;;;3.50;71.80;;;;;;5103103;28;19924;-72
2022/03/12 09:30:43;;;;;;;;;;;3.60;70.90;;;;;;5102895;28;19927;-73
2022/03/12 09:33:10;;;;;;;;;;;3.70;71.50;;;;;;5116084;28;19920;-73
2022/03/12 09:35:38;;;;;;;;;;;3.80;71.70;;;;;;5122697;28;19928;-73
2022/03/12 09:38:05;;;;;;;;;;;3.90;71.20;;;;;;5123336;28;20130;-73
2022/03/12 09:40:32;;;;;;;;;;;4.00;71.10;;;;;;5123344;28;19919;-73
2022/03/12 09:42:58;;;;;;;;;;;4.00;71.10;;;;;;5125814;28;19927;-73
2022/03/12 09:45:25;;;;;;;;;;;4.10;71.30;;;;;;5106336;28;20196;-72
2022/03/12 09:47:52;;;;;;;;;;;4.20;71.10;;;;;;5106636;28;19926;-73
2022/03/12 09:50:18;;;;;;;;;;;4.20;70.70;;;;;;5105335;28;19920;-73
2022/03/12 09:52:46;;;;;;;;;;;4.30;70.70;;;;;;5103790;28;19920;-73
2022/03/12 09:55:13;;;;;;;;;;;4.40;71.70;;;;;;5109178;28;19920;-73
2022/03/12 09:57:40;;;;;;;;;;;4.50;71.00;;;;;;5105635;28;19920;-73
2022/03/12 10:00:08;;;;;;;;;;;4.60;70.50;;;;;;5112953;28;20123;-73
2022/03/12 10:02:34;;;;;;;;;;;4.70;70.80;;;;;;5126686;28;19919;-73
2022/03/12 10:05:01;;;;;;;;;;;4.70;70.50;;;;;;5116645;28;19928;-73
2022/03/12 10:07:27;;;;;;;;;;;4.80;71.10;;;;;;5105905;28;19942;-73
2022/03/12 10:09:55;;;;;;;;;;;4.90;71.30;;;;;;5106028;28;19952;-73
2022/03/12 10:12:22;;;;;;;;;;;5.10;70.60;;;;;;5106518;28;19966;-73
2022/03/12 10:14:49;;;;;;;;;;;5.20;70.50;;;;;;5109167;28;19920;-73
2022/03/12 10:17:17;;;;;;;;;;;5.20;71.20;;;;;;5107508;28;19951;-73
2022/03/12 10:19:44;;;;;;;;;;;5.40;70.90;;;;;;5106404;28;19968;-72
2022/03/12 10:22:11;;;;;;;;;;;5.50;71.10;;;;;;5105398;28;19920;-72
2022/03/12 10:24:38;;;;;;;;;;;5.70;70.60;;;;;;5105507;28;19920;-72
2022/03/12 10:27:07;;;;;;;;;;;5.70;70.00;;;;;;5116556;28;19920;-73
2022/03/12 10:29:34;;;;;;;;;;;5.80;70.00;;;;;;5108710;28;19920;-72
2022/03/12 10:32:00;;;;;;;;;;;6.00;69.40;;;;;;5105596;28;20254;-72
2022/03/12 10:34:28;;;;;;;;;;;6.10;70.00;;;;;;5104855;28;20212;-72
2022/03/12 10:36:55;;;;;;;;;;;6.10;70.00;;;;;;5107278;28;19926;-72
2022/03/12 10:39:32;;;;;;;;;;;6.20;70.60;;;;;;5125369;28;19920;-72
2022/03/12 10:42:02;;;;;;;;;;;6.40;70.50;;;;;;5116692;28;19920;-71
2022/03/12 10:44:41;;;;;;;;;;;6.60;70.50;;;;;;5104180;28;19920;-73
2022/03/12 10:47:15;;;;;;;;;;;6.80;69.20;;;;;;5122388;28;19930;-71
2022/03/12 10:49:54;;;;;;;;;;;7.00;69.40;;;;;;5125592;28;19919;-72
2022/03/12 10:52:21;;;;;;;;;;;7.10;70.00;;;;;;5125622;28;19919;-72
2022/03/12 10:54:48;;;;;;;;;;;7.30;70.20;;;;;;5112682;28;19927;-72
2022/03/12 10:57:14;;;;;;;;;;;7.40;70.00;;;;;;5104314;28;19920;-72
2022/03/12 10:59:42;;;;;;;;;;;7.50;69.10;;;;;;5115922;28;19919;-72
2022/03/12 11:02:10;;;;;;;;;;;7.70;68.30;;;;;;5125263;28;19926;-72
2022/03/12 11:04:37;;;;;;;;;;;7.90;69.60;;;;;;5111888;28;19920;-71
2022/03/12 11:07:18;;;;;;;;;;;8.10;67.50;;;;;;5104525;28;20202;-72
2022/03/12 11:09:47;;;;;;;;;;;8.10;67.50;;;;;;5104166;28;20389;-71
2022/03/12 11:12:30;;;;;;;;;;;8.30;69.10;;;;;;5104639;28;19958;-72
2022/03/12 11:15:05;;;;;;;;;;;8.60;69.20;;;;;;5112417;28;20172;-74
2022/03/12 11:17:36;;;;;;;;;;;8.80;69.50;;;;;;5124578;28;19920;-71
2022/03/12 11:20:04;;;;;;;;;;;9.00;67.70;;;;;;5121057;28;19926;-71
2022/03/12 11:22:31;;;;;;;;;;;9.20;67.10;;;;;;5125272;28;19942;-71
2022/03/12 11:24:57;;;;;;;;;;;9.30;67.20;;;;;;5122699;28;19919;-71
2022/03/12 11:27:31;;;;;;;;;;;9.50;67.30;;;;;;5120302;28;19924;-72
2022/03/12 11:29:59;;;;;;;;;;;9.50;65.50;;;;;;5124914;28;19920;-71
2022/03/12 11:32:35;;;;;;;;;;;9.50;65.20;;;;;;5123807;28;19963;-72
2022/03/12 11:35:04;;;;;;;;;;;9.60;66.30;;;;;;5104380;28;19920;-72
2022/03/12 11:37:31;;;;;;;;;;;9.60;65.20;;;;;;5106970;28;20230;-74
2022/03/12 11:39:59;;;;;;;;;;;9.60;65.50;;;;;;5104637;28;20123;-73
2022/03/12 11:42:26;;;;;;;;;;;9.50;64.40;;;;;;5122517;28;19939;-71
2022/03/12 11:44:54;;;;;;;;;;;9.40;67.10;;;;;;5111925;28;19927;-71
2022/03/12 11:47:21;;;;;;;;;;;9.60;66.90;;;;;;5103811;28;19983;-71
2022/03/12 11:49:50;;;;;;;;;;;9.80;65.70;;;;;;5104183;28;19927;-71
2022/03/12 11:52:17;;;;;;;;;;;9.90;65.40;;;;;;5104405;28;19927;-72
2022/03/12 11:54:45;;;;;;;;;;;10.00;63.90;;;;;;5103823;28;19920;-71
2022/03/12 11:57:12;;;;;;;;;;;10.00;64.90;;;;;;5117988;28;20154;-72
2022/03/12 11:59:39;;;;;;;;;;;10.30;64.80;;;;;;5124075;28;19926;-72
2022/03/12 12:02:17;;;;;;;;;;;10.50;64.20;;;;;;5124457;28;19926;-71
2022/03/12 12:04:44;;;;;;;;;;;10.70;63.00;;;;;;5123799;28;20142;-71
2022/03/12 12:07:12;;;;;;;;;;;10.80;62.20;;;;;;5122990;28;19920;-71
2022/03/12 12:09:39;;;;;;;;;;;10.60;61.80;;;;;;5123807;28;19979;-71
2022/03/12 12:12:09;;;;;;;;;;;10.40;61.50;;;;;;5110522;28;19926;-72
2022/03/12 12:14:37;;;;;;;;;;;10.30;63.10;;;;;;5101229;28;20162;-71
2022/03/12 12:17:04;;;;;;;;;;;10.40;63.00;;;;;;5103100;28;19928;-72
2022/03/12 12:19:30;;;;;;;;;;;10.50;62.50;;;;;;5103709;28;19927;-72
2022/03/12 12:21:57;;;;;;;;;;;10.70;64.40;;;;;;5103835;28;19919;-72
2022/03/12 12:24:29;;;;;;;;;;;10.80;61.50;;;;;;5109278;28;19920;-72
2022/03/12 12:27:00;;;;;;;;;;;11.00;62.80;;;;;;5123486;28;19920;-72
2022/03/12 12:29:45;;;;;;;;;;;11.30;63.10;;;;;;5112682;28;19924;-72
2022/03/12 12:32:12;;;;;;;;;;;11.60;61.90;;;;;;5103548;28;20158;-72
2022/03/12 12:34:57;;;;;;;;;;;11.90;61.20;;;;;;5103928;28;19927;-71
2022/03/12 12:37:39;;;;;;;;;;;12.10;60.10;;;;;;5102926;28;20204;-71
2022/03/12 12:40:20;;;;;;;;;;;12.20;60.60;;;;;;5104207;28;19920;-70
2022/03/12 12:42:47;;;;;;;;;;;12.20;59.80;;;;;;5103423;28;20116;-70
2022/03/12 12:45:14;;;;;;;;;;;12.30;60.00;;;;;;5102445;28;19920;-72
2022/03/12 12:47:40;;;;;;;;;;;12.20;59.00;;;;;;5103249;28;19920;-72
2022/03/12 12:50:17;;;;;;;;;;;12.10;59.00;;;;;;5106258;28;19928;-72
2022/03/12 12:53:09;;;;;;;;;;;11.90;59.50;;;;;;5123768;28;19926;-72
2022/03/12 12:55:37;;;;;;;;;;;11.90;59.70;;;;;;5120122;28;19920;-72
2022/03/12 12:58:03;;;;;;;;;;;11.80;61.50;;;;;;5103029;28;20115;-72
2022/03/12 13:00:34;;;;;;;;;;;12.00;60.00;;;;;;5103430;28;19920;-72
2022/03/12 13:03:01;;;;;;;;;;;12.20;59.80;;;;;;5102343;28;19920;-72
2022/03/12 13:05:44;;;;;;;;;;;12.40;60.70;;;;;;5102562;28;19958;-72
2022/03/12 13:08:12;;;;;;;;;;;12.60;60.00;;;;;;5119374;28;19926;-71
2022/03/12 13:10:40;;;;;;;;;;;12.80;59.10;;;;;;5123555;28;19989;-72
2022/03/12 13:13:12;;;;;;;;;;;12.90;60.80;;;;;;5120496;28;19927;-71
2022/03/12 13:15:40;;;;;;;;;;;13.00;58.20;;;;;;5117860;28;19928;-71
2022/03/12 13:18:26;;;;;;;;;;;13.00;59.50;;;;;;5126006;28;20178;-71
2022/03/12 13:20:53;;;;;;;;;;;13.20;57.90;;;;;;5107998;28;19987;-70
2022/03/12 13:23:21;;;;;;;;;;;13.50;58.90;;;;;;5106921;28;19920;-70
2022/03/12 13:25:51;;;;;;;;;;;13.70;58.70;;;;;;5109720;28;19920;-72
2022/03/12 13:28:35;;;;;;;;;;;13.80;57.30;;;;;;5106711;28;19920;-72
2022/03/12 13:31:12;;;;;;;;;;;13.60;57.60;;;;;;5106742;28;19966;-71
2022/03/12 13:33:39;;;;;;;;;;;13.40;58.50;;;;;;5124990;28;20204;-71
2022/03/12 13:36:06;;;;;;;;;;;13.50;58.10;;;;;;5123671;28;19931;-71
2022/03/12 13:38:32;;;;;;;;;;;13.40;57.90;;;;;;5124449;28;19951;-72
2022/03/12 13:41:01;;;;;;;;;;;13.20;57.50;;;;;;5126792;28;20206;-71
2022/03/12 13:43:28;;;;;;;;;;;13.20;58.30;;;;;;5122031;27;20111;-72
2022/03/12 13:46:00;;;;;;;;;;;13.30;59.40;;;;;;5126184;28;19926;-71
2022/03/12 13:48:28;;;;;;;;;;;13.50;57.20;;;;;;5127209;28;19955;-71
2022/03/12 13:50:56;;;;;;;;;;;13.50;58.50;;;;;;5126780;28;19920;-71
2022/03/12 13:53:27;;;;;;;;;;;13.80;58.80;;;;;;5125503;28;19926;-71
2022/03/12 13:56:04;;;;;;;;;;;14.10;57.00;;;;;;5122210;28;19920;-71
2022/03/12 13:58:31;;;;;;;;;;;13.60;56.70;;;;;;5126420;28;19920;-71
2022/03/12 14:01:00;;;;;;;;;;;13.30;56.90;;;;;;5126365;28;19919;-71
2022/03/12 14:03:30;;;;;;;;;;;12.90;58.10;;;;;;5126479;28;20207;-71
2022/03/12 14:05:57;;;;;;;;;;;12.90;58.10;;;;;;5125444;28;19920;-71
2022/03/12 14:08:24;;;;;;;;;;;12.90;58.00;;;;;;5106090;28;19920;-71
2022/03/12 14:10:52;;;;;;;;;;;12.80;57.90;;;;;;5126316;28;19965;-71
2022/03/12 14:13:21;;;;;;;;;;;12.80;58.00;;;;;;5126725;28;19919;-71
2022/03/12 14:15:48;;;;;;;;;;;12.90;58.80;;;;;;5125857;28;19919;-71
2022/03/12 14:18:23;;;;;;;;;;;13.10;59.10;;;;;;5125157;28;20212;-71
2022/03/12 14:20:49;;;;;;;;;;;13.30;58.40;;;;;;5106146;28;19920;-71
2022/03/12 14:23:18;;;;;;;;;;;13.70;58.20;;;;;;5120648;28;19927;-71
2022/03/12 14:25:44;;;;;;;;;;;13.90;58.30;;;;;;5124610;28;19955;-71
2022/03/12 14:28:11;;;;;;;;;;;14.30;58.10;;;;;;5123019;28;19920;-71
2022/03/12 14:30:40;;;;;;;;;;;14.50;56.40;;;;;;5125829;28;19919;-71
2022/03/12 14:33:07;;;;;;;;;;;14.40;56.10;;;;;;5122002;28;19932;-71